Time;durP1;ratioP1;P1;durP2;ratioP2;P2;SDS_P1;SDS_P2;PMS_P1;PMS_P2;Temp;Humidity;BMP_temperature;BMP_pressure;BME280_temperature;BME280_humidity;BME280_pressure;Samples;Min_cycle;Max_cycle;Signal;HPM_P1;HPM_P2
2021/05/20 00:01:12;;;;;;;26.10;17.85;;;;;;;6.85;100.00;101941.56;3561983;40;20312;-61
2021/05/20 00:03:39;;;;;;;32.05;21.45;;;;;;;6.89;100.00;101947.59;3561732;40;20057;-62
2021/05/20 00:06:05;;;;;;;29.42;19.50;;;;;;;6.88;100.00;101949.41;3562047;40;20072;-62
2021/05/20 00:08:32;;;;;;;24.88;18.55;;;;;;;6.83;100.00;101938.97;3560627;40;20408;-61
2021/05/20 00:10:58;;;;;;;26.02;19.45;;;;;;;6.84;100.00;101945.16;3561926;40;20057;-61
2021/05/20 00:13:24;;;;;;;28.92;18.77;;;;;;;6.77;100.00;101941.09;3561079;40;20046;-63
2021/05/20 00:15:50;;;;;;;30.80;20.55;;;;;;;6.75;100.00;101948.38;3563070;40;20060;-61
2021/05/20 00:18:16;;;;;;;31.40;21.27;;;;;;;6.72;100.00;101954.72;3571631;40;20045;-61
2021/05/20 00:20:43;;;;;;;30.00;21.52;;;;;;;6.73;100.00;101950.22;3571013;40;20067;-61
2021/05/20 00:23:09;;;;;;;30.13;21.17;;;;;;;6.71;100.00;101946.78;3570945;40;20130;-63
2021/05/20 00:25:35;;;;;;;33.50;21.58;;;;;;;6.73;100.00;101944.88;3571823;40;20057;-61
2021/05/20 00:28:01;;;;;;;30.90;21.25;;;;;;;6.72;100.00;101943.19;3571446;40;20041;-61
2021/05/20 00:30:27;;;;;;;35.25;22.20;;;;;;;6.68;100.00;101945.16;3574381;40;20291;-62
2021/05/20 00:32:53;;;;;;;36.45;23.98;;;;;;;6.71;100.00;101941.44;3575237;40;20289;-62
2021/05/20 00:35:18;;;;;;;35.42;23.02;;;;;;;6.77;100.00;101946.44;3575107;40;20052;-61
2021/05/20 00:37:45;;;;;;;32.85;21.77;;;;;;;6.78;100.00;101943.69;3575677;40;20063;-62
2021/05/20 00:40:12;;;;;;;32.22;20.73;;;;;;;6.79;100.00;101939.22;3574232;40;20061;-61
2021/05/20 00:42:38;;;;;;;30.95;21.15;;;;;;;6.77;100.00;101951.81;3575976;40;20055;-62
2021/05/20 00:45:06;;;;;;;39.13;21.83;;;;;;;6.65;100.00;101942.63;3575949;40;20048;-61
2021/05/20 00:47:34;;;;;;;31.33;21.15;;;;;;;6.55;100.00;101941.41;3576313;40;20057;-62
2021/05/20 00:50:00;;;;;;;26.27;17.73;;;;;;;6.58;100.00;101942.13;3573503;40;20067;-62
2021/05/20 00:52:26;;;;;;;28.92;20.60;;;;;;;6.46;100.00;101943.66;3574650;40;20476;-62
2021/05/20 00:54:55;;;;;;;27.75;19.90;;;;;;;6.51;100.00;101946.06;3575010;40;20325;-61
2021/05/20 00:57:22;;;;;;;31.83;21.27;;;;;;;6.45;100.00;101947.28;3575713;40;20065;-61
2021/05/20 00:59:49;;;;;;;35.88;22.75;;;;;;;6.45;100.00;101944.59;3575158;40;20104;-59
2021/05/20 01:02:15;;;;;;;36.33;22.02;;;;;;;6.49;100.00;101948.84;3574759;40;20053;-61
2021/05/20 01:04:41;;;;;;;30.38;20.65;;;;;;;6.49;100.00;101956.84;3573599;40;20405;-61
2021/05/20 01:07:07;;;;;;;32.28;21.02;;;;;;;6.42;100.00;101957.25;3575060;40;20100;-61
2021/05/20 01:09:35;;;;;;;34.90;22.85;;;;;;;6.32;100.00;101954.22;3574301;40;20045;-61
2021/05/20 01:12:02;;;;;;;32.20;21.13;;;;;;;6.16;100.00;101946.16;3575096;40;20048;-62
2021/05/20 01:14:28;;;;;;;41.30;24.77;;;;;;;6.07;100.00;101941.28;3573829;40;20056;-60
2021/05/20 01:16:54;;;;;;;40.20;24.52;;;;;;;6.12;100.00;101939.22;3574760;40;20030;-61
2021/05/20 01:19:20;;;;;;;40.13;25.73;;;;;;;6.16;100.00;101935.44;3574477;40;20049;-61
2021/05/20 01:21:47;;;;;;;38.65;24.02;;;;;;;6.13;100.00;101940.97;3575452;40;20048;-60
2021/05/20 01:24:13;;;;;;;37.42;22.85;;;;;;;6.17;100.00;101947.00;3574449;40;20067;-61
2021/05/20 01:26:40;;;;;;;36.55;22.92;;;;;;;6.16;100.00;101950.63;3575098;40;20056;-61
2021/05/20 01:31:34;;;;;;;40.30;25.80;;;;;;;6.11;100.00;101957.09;3621566;22;20053;-60
2021/05/20 01:34:00;;;;;;;41.90;24.52;;;;;;;6.07;100.00;101960.84;3590012;40;20081;-61
2021/05/20 01:36:26;;;;;;;40.00;26.25;;;;;;;6.03;100.00;101966.44;3590672;40;20443;-61
2021/05/20 01:38:53;;;;;;;42.92;26.77;;;;;;;6.04;100.00;101973.53;3589477;40;20039;-61
2021/05/20 01:41:20;;;;;;;47.42;28.08;;;;;;;6.06;100.00;101966.28;3590295;40;20477;-61
2021/05/20 01:43:46;;;;;;;67.82;30.73;;;;;;;6.08;100.00;101959.91;3588428;39;20053;-61
2021/05/20 01:48:42;;;;;;;73.22;33.45;;;;;;;6.13;100.00;101967.69;3647211;22;20045;-61
2021/05/20 01:51:09;;;;;;;91.47;35.80;;;;;;;6.15;100.00;101973.81;3575117;40;20037;-61
2021/05/20 01:53:36;;;;;;;98.35;35.05;;;;;;;6.13;100.00;101968.53;3575707;40;20049;-62
2021/05/20 01:56:04;;;;;;;152.25;40.92;;;;;;;6.23;100.00;101968.09;3575042;40;20362;-62
2021/05/20 01:58:30;;;;;;;182.68;44.70;;;;;;;6.26;100.00;101976.78;3577088;40;20481;-63
2021/05/20 02:00:56;;;;;;;142.07;41.97;;;;;;;6.29;100.00;101984.66;3575418;40;20624;-61
2021/05/20 02:03:23;;;;;;;89.00;38.35;;;;;;;6.34;100.00;101980.88;3575843;40;20485;-62
2021/05/20 02:05:49;;;;;;;94.63;40.83;;;;;;;6.44;100.00;101990.16;3576069;40;20123;-62
2021/05/20 02:08:15;;;;;;;144.75;45.08;;;;;;;6.53;100.00;101984.28;3576224;40;20045;-60
2021/05/20 02:10:42;;;;;;;114.68;43.30;;;;;;;6.52;100.00;101985.22;3576351;40;20059;-61
2021/05/20 02:13:09;;;;;;;368.60;61.67;;;;;;;6.55;100.00;101990.44;3574955;40;20052;-61
2021/05/20 02:15:37;;;;;;;169.23;49.92;;;;;;;6.68;100.00;101989.78;3576229;40;20025;-61
2021/05/20 02:18:03;;;;;;;134.95;48.95;;;;;;;6.73;100.00;101995.72;3575971;40;20036;-60
2021/05/20 02:20:29;;;;;;;203.35;52.55;;;;;;;6.80;100.00;101992.66;3575775;40;20064;-62
2021/05/20 02:22:55;;;;;;;146.57;49.10;;;;;;;6.86;100.00;101991.47;3574235;40;20410;-62
2021/05/20 02:25:21;;;;;;;351.02;60.85;;;;;;;6.90;100.00;101995.66;3576624;40;20131;-61
2021/05/20 02:27:47;;;;;;;144.80;50.58;;;;;;;6.93;100.00;101984.78;3575772;40;20408;-62
2021/05/20 02:30:16;;;;;;;160.27;50.53;;;;;;;6.93;100.00;101983.94;3575659;40;20609;-62
2021/05/20 02:32:42;;;;;;;132.32;50.65;;;;;;;6.96;100.00;101973.94;3574704;40;20101;-62
2021/05/20 02:35:10;;;;;;;152.82;53.08;;;;;;;7.04;100.00;101976.19;3575322;40;20343;-61
2021/05/20 02:37:36;;;;;;;87.32;47.17;;;;;;;7.19;100.00;101971.78;3575695;40;20505;-61
2021/05/20 02:40:04;;;;;;;165.75;53.75;;;;;;;7.22;100.00;101976.97;3577042;40;20056;-60
2021/05/20 02:42:30;;;;;;;123.78;51.72;;;;;;;7.22;100.00;101985.00;3576274;40;20059;-60
2021/05/20 02:44:56;;;;;;;156.70;53.42;;;;;;;7.24;100.00;101977.72;3575805;40;20139;-61
2021/05/20 02:47:23;;;;;;;118.47;52.00;;;;;;;7.27;100.00;101988.25;3576267;40;20033;-61
2021/05/20 02:49:49;;;;;;;132.73;51.80;;;;;;;7.33;100.00;101979.00;3576151;40;20041;-61
2021/05/20 02:52:15;;;;;;;123.55;52.25;;;;;;;7.34;100.00;101978.06;3576054;40;20079;-60
2021/05/20 02:54:41;;;;;;;103.28;49.85;;;;;;;7.41;100.00;101983.97;3574461;40;20153;-61
2021/05/20 02:57:08;;;;;;;161.23;52.90;;;;;;;7.50;100.00;101972.69;3575625;40;20058;-61
2021/05/20 02:59:34;;;;;;;129.30;50.70;;;;;;;7.50;100.00;101983.41;3576318;40;20331;-62
2021/05/20 03:02:04;;;;;;;136.43;54.20;;;;;;;7.51;100.00;101985.16;3575469;40;20331;-60
2021/05/20 03:04:31;;;;;;;107.28;53.10;;;;;;;7.50;100.00;101986.09;3576061;40;20044;-61
2021/05/20 03:06:58;;;;;;;149.10;56.75;;;;;;;7.52;100.00;101984.19;3576500;40;20078;-62
2021/05/20 03:09:24;;;;;;;105.90;52.05;;;;;;;7.64;100.00;101975.44;3575484;40;20127;-61
2021/05/20 03:11:50;;;;;;;97.20;48.60;;;;;;;7.71;100.00;101981.28;3575837;40;20350;-61
2021/05/20 03:14:16;;;;;;;117.95;53.65;;;;;;;7.68;100.00;101974.28;3574919;40;20057;-61
2021/05/20 03:16:42;;;;;;;101.95;50.60;;;;;;;7.77;100.00;101969.34;3575978;40;20084;-62
2021/05/20 03:19:08;;;;;;;111.05;53.10;;;;;;;7.76;100.00;101970.31;3576639;40;20049;-61
2021/05/20 03:21:35;;;;;;;123.90;56.38;;;;;;;7.78;100.00;101977.31;3574959;40;20045;-61
2021/05/20 03:24:01;;;;;;;125.75;53.90;;;;;;;7.80;100.00;101969.19;3573487;40;20076;-61
2021/05/20 03:26:27;;;;;;;145.32;60.00;;;;;;;7.76;100.00;101972.97;3575908;40;20037;-61
2021/05/20 03:28:53;;;;;;;134.57;59.83;;;;;;;7.80;100.00;101977.22;3574672;40;20073;-61
2021/05/20 03:31:19;;;;;;;121.90;58.17;;;;;;;7.85;100.00;101978.69;3576649;40;20061;-61
2021/05/20 03:33:45;;;;;;;112.20;52.47;;;;;;;7.84;100.00;101970.72;3575787;40;20075;-62
2021/05/20 03:36:11;;;;;;;113.72;55.28;;;;;;;7.85;100.00;101965.28;3575421;40;21171;-61
2021/05/20 03:38:38;;;;;;;124.90;57.25;;;;;;;7.93;100.00;101969.31;3576692;40;20132;-62
2021/05/20 03:41:04;;;;;;;111.05;56.13;;;;;;;8.03;100.00;101970.50;3575240;40;20399;-61
2021/05/20 03:43:31;;;;;;;107.45;54.17;;;;;;;8.03;100.00;101965.13;3575544;40;20081;-60
2021/05/20 03:45:57;;;;;;;111.55;53.58;;;;;;;7.91;100.00;101968.56;3575894;40;20089;-61
2021/05/20 03:48:23;;;;;;;118.38;55.45;;;;;;;8.06;100.00;101963.13;3575840;40;20041;-61
2021/05/20 03:50:49;;;;;;;118.35;55.58;;;;;;;7.88;100.00;101961.56;3575669;40;20069;-61
2021/05/20 03:53:15;;;;;;;117.85;55.13;;;;;;;7.89;100.00;101963.25;3573297;40;20154;-61
2021/05/20 03:55:42;;;;;;;111.63;54.03;;;;;;;7.82;100.00;101978.00;3575316;40;20392;-62
2021/05/20 03:58:08;;;;;;;116.93;55.40;;;;;;;7.90;100.00;101975.72;3575768;40;20045;-60
2021/05/20 04:00:33;;;;;;;111.03;55.08;;;;;;;7.94;100.00;101969.22;3574093;40;20407;-61
2021/05/20 04:02:59;;;;;;;103.57;52.47;;;;;;;8.07;100.00;101966.69;3574064;40;20392;-61
2021/05/20 04:05:25;;;;;;;105.07;54.08;;;;;;;8.01;100.00;101967.91;3574899;40;20354;-61
2021/05/20 04:07:51;;;;;;;114.18;56.10;;;;;;;8.05;100.00;101964.09;3575487;40;20316;-62
2021/05/20 04:10:17;;;;;;;111.43;55.67;;;;;;;8.16;100.00;101965.25;3574801;40;20311;-60
2021/05/20 04:12:45;;;;;;;110.40;54.97;;;;;;;8.14;100.00;101964.47;3575005;40;20036;-60
2021/05/20 04:15:12;;;;;;;131.98;59.20;;;;;;;8.23;100.00;101969.28;3575309;40;20049;-61
2021/05/20 04:17:39;;;;;;;121.85;59.15;;;;;;;8.25;100.00;101975.41;3575340;40;20408;-62
2021/05/20 04:20:06;;;;;;;124.10;59.65;;;;;;;8.22;100.00;101971.09;3575104;40;20406;-61
2021/05/20 04:22:32;;;;;;;129.98;61.70;;;;;;;8.24;100.00;101971.00;3575605;40;20282;-62
2021/05/20 04:24:58;;;;;;;125.15;58.33;;;;;;;8.25;100.00;101972.72;3573559;40;20049;-61
2021/05/20 04:27:24;;;;;;;116.43;54.75;;;;;;;8.29;100.00;101971.59;3574159;40;20057;-60
2021/05/20 04:29:51;;;;;;;118.13;58.92;;;;;;;8.36;100.00;101978.31;3574787;40;20049;-62
2021/05/20 04:32:17;;;;;;;131.73;55.75;;;;;;;8.40;100.00;101985.19;3574557;40;20912;-62
2021/05/20 04:34:44;;;;;;;135.55;55.47;;;;;;;8.45;100.00;101987.66;3574530;40;20154;-61
2021/05/20 04:37:10;;;;;;;135.45;54.25;;;;;;;8.52;100.00;101988.13;3574947;40;20168;-62
2021/05/20 04:39:36;;;;;;;133.23;53.50;;;;;;;8.49;100.00;101991.00;3575359;40;20096;-61
2021/05/20 04:42:03;;;;;;;167.98;54.38;;;;;;;8.51;100.00;101995.31;3574370;40;20029;-62
2021/05/20 04:44:29;;;;;;;142.10;51.35;;;;;;;8.49;100.00;101993.69;3576035;40;20298;-62
2021/05/20 04:46:56;;;;;;;141.73;53.60;;;;;;;8.58;100.00;101998.47;3573289;40;21110;-61
2021/05/20 04:49:22;;;;;;;135.15;49.03;;;;;;;8.61;100.00;101995.59;3576120;40;20059;-61
2021/05/20 04:51:48;;;;;;;137.18;49.17;;;;;;;8.53;100.00;101990.72;3574624;40;20057;-62
2021/05/20 04:54:14;;;;;;;131.73;47.60;;;;;;;8.58;100.00;101980.56;3574258;40;20504;-61
2021/05/20 04:56:40;;;;;;;121.50;46.85;;;;;;;8.56;100.00;101987.81;3574184;40;20695;-62
2021/05/20 04:59:06;;;;;;;120.05;47.90;;;;;;;8.51;100.00;101987.28;3574415;40;20053;-63
2021/05/20 05:01:33;;;;;;;116.07;45.97;;;;;;;8.60;100.00;101999.25;3573727;40;20419;-62
2021/05/20 05:04:00;;;;;;;117.10;45.85;;;;;;;8.67;100.00;101991.66;3574827;40;20049;-62
2021/05/20 05:06:26;;;;;;;109.15;45.50;;;;;;;8.84;100.00;101996.00;3574941;40;20445;-62
2021/05/20 05:08:52;;;;;;;103.15;43.65;;;;;;;8.72;100.00;101987.75;3575401;40;20295;-62
2021/05/20 05:11:18;;;;;;;106.03;45.22;;;;;;;8.67;100.00;101992.56;3574927;40;20052;-63
2021/05/20 05:13:44;;;;;;;102.80;43.78;;;;;;;8.68;100.00;101993.41;3574754;40;20434;-61
2021/05/20 05:16:10;;;;;;;103.32;42.35;;;;;;;8.69;100.00;102003.19;3573478;40;20049;-61
2021/05/20 05:18:38;;;;;;;94.80;39.65;;;;;;;8.73;100.00;102000.22;3574284;40;20415;-62
2021/05/20 05:21:04;;;;;;;88.70;38.25;;;;;;;8.69;100.00;102004.03;3575504;40;20065;-62
2021/05/20 05:23:30;;;;;;;80.00;36.85;;;;;;;8.68;100.00;102004.13;3573963;40;20037;-62
2021/05/20 05:25:56;;;;;;;75.57;36.65;;;;;;;8.71;100.00;101998.56;3574327;40;20037;-62
2021/05/20 05:28:22;;;;;;;78.95;36.60;;;;;;;8.65;100.00;102005.19;3574252;40;20053;-63
2021/05/20 05:30:48;;;;;;;77.65;37.95;;;;;;;8.76;100.00;102005.38;3575494;40;20060;-62
2021/05/20 05:33:14;;;;;;;82.18;36.53;;;;;;;8.82;100.00;102012.19;3573252;40;20411;-62
2021/05/20 05:35:40;;;;;;;69.00;34.15;;;;;;;8.92;100.00;102009.78;3576335;40;20065;-62
2021/05/20 05:38:08;;;;;;;69.53;34.25;;;;;;;9.00;100.00;102007.47;3574878;40;20053;-62
2021/05/20 05:40:34;;;;;;;76.22;34.95;;;;;;;9.12;100.00;102006.69;3574928;40;20047;-62
2021/05/20 05:43:00;;;;;;;74.85;32.67;;;;;;;9.24;100.00;102015.78;3573851;40;20037;-62
2021/05/20 05:45:26;;;;;;;69.90;32.63;;;;;;;9.27;100.00;102017.41;3573454;40;20052;-62
2021/05/20 05:47:52;;;;;;;65.72;32.25;;;;;;;9.40;100.00;102012.97;3572964;40;20068;-62
2021/05/20 05:50:18;;;;;;;65.97;35.83;;;;;;;9.31;100.00;102008.19;3573896;40;20026;-63
2021/05/20 05:52:44;;;;;;;65.88;33.40;;;;;;;9.38;100.00;102008.63;3572831;40;20065;-61
2021/05/20 05:55:11;;;;;;;63.80;29.67;;;;;;;9.69;100.00;102012.88;3572492;40;20115;-62
2021/05/20 05:57:37;;;;;;;67.32;31.60;;;;;;;9.78;100.00;101997.97;3573488;40;20063;-61
2021/05/20 06:00:05;;;;;;;58.42;30.83;;;;;;;9.91;100.00;101990.78;3571851;40;20041;-62
2021/05/20 06:02:32;;;;;;;65.40;31.48;;;;;;;10.34;100.00;101987.00;3561208;40;20103;-62
2021/05/20 06:04:59;;;;;;;58.60;31.77;;;;;;;10.18;100.00;101992.56;3565328;40;20057;-62
2021/05/20 06:07:25;;;;;;;58.35;29.95;;;;;;;10.15;100.00;102001.69;3570827;40;20053;-62
2021/05/20 06:09:51;;;;;;;50.63;28.02;;;;;;;10.03;100.00;102004.38;3571765;40;20151;-61
2021/05/20 06:12:18;;;;;;;54.88;29.20;;;;;;;10.36;100.00;102003.91;3572546;40;20085;-61
2021/05/20 06:14:45;;;;;;;54.17;29.17;;;;;;;10.37;100.00;102007.47;3571750;40;20318;-61
2021/05/20 06:17:11;;;;;;;48.38;27.77;;;;;;;10.44;100.00;102004.25;3571123;40;20045;-62
2021/05/20 06:19:37;;;;;;;53.20;29.10;;;;;;;10.06;100.00;101999.63;3571858;40;20041;-61
2021/05/20 06:22:03;;;;;;;54.40;30.25;;;;;;;10.19;100.00;101996.97;3572062;40;20048;-62
2021/05/20 06:24:29;;;;;;;56.15;31.70;;;;;;;10.70;100.00;102004.22;3572625;40;20063;-62
2021/05/20 06:26:55;;;;;;;51.92;30.67;;;;;;;10.87;100.00;101998.50;3572166;40;20077;-62
2021/05/20 06:29:22;;;;;;;48.22;27.48;;;;;;;11.25;100.00;102012.00;3568862;40;20065;-62
2021/05/20 06:31:48;;;;;;;47.42;27.17;;;;;;;10.69;100.00;102008.75;3564318;40;20049;-62
2021/05/20 06:34:14;;;;;;;49.92;26.58;;;;;;;10.57;100.00;102011.44;3566710;40;20281;-62
2021/05/20 06:36:40;;;;;;;42.75;26.02;;;;;;;11.14;100.00;102010.09;3558553;40;20066;-63
2021/05/20 06:41:32;;;;;;;38.08;21.42;;;;;;;10.67;100.00;102017.91;3613506;22;20048;-61
2021/05/20 06:43:58;;;;;;;40.40;22.42;;;;;;;10.49;100.00;102020.06;3592555;39;20051;-63
2021/05/20 06:46:25;;;;;;;41.35;21.35;;;;;;;10.44;100.00;102015.00;3589885;39;20045;-62
2021/05/20 06:48:51;;;;;;;37.88;21.30;;;;;;;10.52;100.00;102009.94;3584645;39;20314;-63
2021/05/20 06:51:17;;;;;;;39.67;20.75;;;;;;;10.76;100.00;102006.50;3580047;39;20324;-63
2021/05/20 06:53:47;;;;;;;40.35;21.70;;;;;;;11.33;100.00;102004.22;3578211;40;20045;-62
2021/05/20 06:56:17;;;;;;;34.60;19.00;;;;;;;11.40;100.00;102000.09;3584621;40;20361;-62
2021/05/20 07:01:28;;;;;;;32.17;18.13;;;;;;;11.13;100.00;102027.22;3580533;40;20063;-62
2021/05/20 07:03:54;;;;;;;35.22;17.55;;;;;;;11.38;100.00;102026.28;3581460;40;20299;-62
2021/05/20 07:06:20;;;;;;;29.45;17.40;;;;;;;11.39;100.00;102025.31;3581311;40;20052;-62
2021/05/20 07:08:46;;;;;;;29.67;17.15;;;;;;;11.76;100.00;102025.28;3582112;40;20032;-62
2021/05/20 07:11:12;;;;;;;27.55;16.55;;;;;;;11.02;100.00;102019.91;3582104;40;20378;-62
2021/05/20 07:13:38;;;;;;;30.65;16.70;;;;;;;11.32;100.00;102021.34;3580488;40;20052;-63
2021/05/20 07:16:04;;;;;;;26.80;16.40;;;;;;;10.93;100.00;102012.50;3580347;40;20307;-62
2021/05/20 07:18:31;;;;;;;23.60;15.40;;;;;;;11.24;100.00;102012.97;3582063;40;20521;-62
2021/05/20 07:20:57;;;;;;;26.88;17.77;;;;;;;11.26;100.00;102013.72;3579818;40;20117;-62
2021/05/20 07:23:23;;;;;;;25.45;15.73;;;;;;;11.50;100.00;102019.16;3581365;40;20411;-63
2021/05/20 07:25:49;;;;;;;28.05;17.10;;;;;;;11.43;100.00;102021.44;3578689;40;20405;-63
2021/05/20 07:28:15;;;;;;;28.00;17.42;;;;;;;11.23;100.00;102017.50;3579357;40;20052;-63
2021/05/20 07:30:41;;;;;;;31.52;18.60;;;;;;;11.37;100.00;102019.19;3580634;40;20425;-62
2021/05/20 07:33:08;;;;;;;30.30;18.40;;;;;;;11.10;100.00;102012.16;3580143;40;20054;-63
2021/05/20 07:35:34;;;;;;;28.33;16.73;;;;;;;11.40;100.00;102010.88;3578883;40;20085;-63
2021/05/20 07:38:00;;;;;;;27.27;16.85;;;;;;;11.48;100.00;102011.16;3581946;40;20113;-63
2021/05/20 07:40:26;;;;;;;26.50;17.77;;;;;;;11.64;100.00;102016.28;3579000;40;20056;-62
2021/05/20 07:42:52;;;;;;;28.95;18.05;;;;;;;11.98;100.00;102007.50;3578981;40;20076;-63
2021/05/20 07:45:18;;;;;;;30.13;19.05;;;;;;;12.14;100.00;102005.34;3579669;40;20055;-62
2021/05/20 07:47:46;;;;;;;29.63;18.42;;;;;;;12.07;100.00;101996.88;3580529;40;20362;-62
2021/05/20 07:50:13;;;;;;;26.08;17.38;;;;;;;12.39;100.00;101996.19;3582745;40;20049;-63
2021/05/20 07:52:40;;;;;;;24.45;15.30;;;;;;;12.27;100.00;101998.00;3580284;40;20053;-62
2021/05/20 07:55:07;;;;;;;21.58;14.05;;;;;;;12.31;100.00;102005.88;3581734;40;20399;-62
2021/05/20 07:57:33;;;;;;;25.70;16.50;;;;;;;12.40;100.00;101997.94;3586152;40;20291;-63
2021/05/20 07:59:59;;;;;;;23.35;14.23;;;;;;;12.25;100.00;101999.13;3585573;40;20112;-62
2021/05/20 08:02:37;;;;;;;22.48;12.88;;;;;;;12.53;100.00;101997.84;3593618;39;20044;-64
2021/05/20 08:05:06;;;;;;;21.08;13.82;;;;;;;12.29;100.00;101994.34;3595412;39;20063;-66
2021/05/20 08:07:37;;;;;;;18.67;12.20;;;;;;;11.82;100.00;102000.56;3585993;39;20290;-63
2021/05/20 08:10:13;;;;;;;20.38;11.55;;;;;;;12.28;100.00;101996.19;3584088;40;20043;-64
2021/05/20 08:12:39;;;;;;;19.63;12.18;;;;;;;12.21;100.00;101993.09;3584042;40;20035;-62
2021/05/20 08:15:07;;;;;;;21.45;12.50;;;;;;;12.31;100.00;101986.97;3584538;40;20052;-63
2021/05/20 08:17:33;;;;;;;21.85;13.30;;;;;;;12.52;100.00;101979.91;3584119;40;20433;-63
2021/05/20 08:19:59;;;;;;;20.35;12.38;;;;;;;12.48;100.00;101983.81;3580818;40;20407;-63
2021/05/20 08:22:25;;;;;;;27.88;15.45;;;;;;;12.49;100.00;101985.53;3579910;40;20052;-65
2021/05/20 08:24:53;;;;;;;22.52;13.80;;;;;;;12.84;100.00;101987.28;3579967;40;20052;-65
2021/05/20 08:27:20;;;;;;;21.33;13.23;;;;;;;13.04;100.00;101974.00;3576578;40;20052;-62
2021/05/20 08:29:46;;;;;;;19.58;12.48;;;;;;;13.19;100.00;101975.47;3577657;40;20063;-63
2021/05/20 08:32:12;;;;;;;20.65;13.98;;;;;;;13.18;100.00;101981.00;3579463;40;21038;-63
2021/05/20 08:34:39;;;;;;;21.95;14.85;;;;;;;12.79;100.00;101970.56;3577632;40;20056;-63
2021/05/20 08:37:05;;;;;;;19.23;13.57;;;;;;;13.02;100.00;101966.00;3583196;40;20056;-62
2021/05/20 08:39:31;;;;;;;18.45;13.48;;;;;;;13.26;100.00;101960.41;3586232;40;20072;-62
2021/05/20 08:41:58;;;;;;;19.55;13.05;;;;;;;13.40;100.00;101962.03;3580910;40;20429;-63
2021/05/20 08:46:57;;;;;;;19.15;12.35;;;;;;;13.72;100.00;101968.44;3617109;22;20137;-63
2021/05/20 08:49:23;;;;;;;18.63;12.82;;;;;;;13.50;100.00;101964.84;3578406;40;20048;-63
2021/05/20 08:51:49;;;;;;;21.38;14.70;;;;;;;13.22;100.00;101952.69;3577141;40;20037;-63
2021/05/20 08:54:16;;;;;;;19.83;12.75;;;;;;;13.76;100.00;101951.81;3575388;40;20124;-64
2021/05/20 08:56:43;;;;;;;21.10;13.15;;;;;;;13.64;100.00;101945.59;3573027;40;20037;-64
2021/05/20 08:59:09;;;;;;;19.00;12.45;;;;;;;14.05;100.00;101934.94;3572029;40;20050;-63
2021/05/20 09:01:36;;;;;;;18.92;11.90;;;;;;;14.27;100.00;101936.63;3578435;40;20061;-64
2021/05/20 09:04:04;;;;;;;17.85;11.35;;;;;;;14.59;100.00;101932.94;3574916;40;20140;-63
2021/05/20 09:06:38;;;;;;;17.50;12.20;;;;;;;13.83;100.00;101934.06;3577419;40;20049;-63
2021/05/20 09:09:05;;;;;;;14.07;10.15;;;;;;;14.40;100.00;101931.00;3572806;40;20076;-63
2021/05/20 09:11:31;;;;;;;13.88;8.27;;;;;;;14.41;100.00;101921.84;3575645;40;20053;-64
2021/05/20 09:14:02;;;;;;;14.20;9.65;;;;;;;14.52;100.00;101929.06;3575960;40;20053;-65
2021/05/20 09:16:28;;;;;;;16.20;10.68;;;;;;;14.40;100.00;101922.88;3579538;40;20305;-65
2021/05/20 09:18:54;;;;;;;15.90;9.63;;;;;;;14.70;100.00;101922.00;3575408;40;20033;-63
2021/05/20 09:21:21;;;;;;;13.57;8.65;;;;;;;14.78;100.00;101923.19;3575072;40;20050;-65
2021/05/20 09:23:48;;;;;;;13.20;8.70;;;;;;;14.58;100.00;101925.81;3574961;40;20060;-63
2021/05/20 09:26:14;;;;;;;15.52;9.43;;;;;;;14.96;100.00;101926.97;3574669;40;20098;-64
2021/05/20 09:28:43;;;;;;;13.07;9.27;;;;;;;14.86;100.00;101937.75;3573840;40;20053;-63
2021/05/20 09:31:10;;;;;;;12.90;9.35;;;;;;;14.77;100.00;101929.63;3578206;40;20052;-64
2021/05/20 09:33:36;;;;;;;15.75;9.10;;;;;;;14.98;100.00;101926.81;3587038;40;20048;-63
2021/05/20 09:36:02;;;;;;;13.10;8.55;;;;;;;15.46;100.00;101927.88;3586864;40;20049;-65
2021/05/20 09:38:29;;;;;;;16.35;10.77;;;;;;;15.32;100.00;101927.28;3586120;40;20180;-63
2021/05/20 09:40:58;;;;;;;13.70;9.65;;;;;;;15.52;100.00;101925.47;3583974;40;20084;-64
2021/05/20 09:43:27;;;;;;;13.70;8.80;;;;;;;15.73;100.00;101922.59;3582315;40;20053;-64
2021/05/20 09:45:54;;;;;;;16.77;9.65;;;;;;;16.18;100.00;101912.13;3585931;40;20043;-63
2021/05/20 09:48:22;;;;;;;14.23;10.32;;;;;;;15.69;100.00;101917.59;3585463;40;20105;-65
2021/05/20 09:50:50;;;;;;;14.20;9.73;;;;;;;15.99;100.00;101923.88;3580468;40;20048;-63
2021/05/20 09:53:18;;;;;;;13.23;9.40;;;;;;;15.80;100.00;101924.75;3580420;40;20044;-63
2021/05/20 09:55:47;;;;;;;12.30;8.77;;;;;;;15.69;100.00;101913.00;3587166;40;20056;-65
2021/05/20 09:58:13;;;;;;;14.68;10.55;;;;;;;15.67;100.00;101917.75;3585363;40;20092;-62
2021/05/20 10:00:40;;;;;;;17.58;12.48;;;;;;;15.31;100.00;101914.75;3584565;40;20080;-63
2021/05/20 10:03:08;;;;;;;19.17;11.50;;;;;;;15.66;100.00;101917.88;3584106;40;20048;-63
2021/05/20 10:05:36;;;;;;;20.80;13.40;;;;;;;16.31;100.00;101909.06;3582861;40;20048;-63
2021/05/20 10:08:14;;;;;;;21.88;13.68;;;;;;;16.61;100.00;101910.69;3616765;22;20153;-64
2021/05/20 10:10:42;;;;;;;17.70;12.27;;;;;;;16.02;100.00;101902.72;3579342;39;20053;-64
2021/05/20 10:15:40;;;;;;;20.35;14.38;;;;;;;15.66;100.00;101899.75;3649347;22;20316;-63
2021/05/20 10:18:07;;;;;;;;;;;;;;;15.74;100.00;101899.88;3607462;39;21377;-64
2021/05/20 10:20:35;;;;;;;23.58;15.70;;;;;;;15.58;100.00;101905.03;3604479;39;20494;-64
2021/05/20 10:23:01;;;;;;;22.48;14.48;;;;;;;15.33;100.00;101896.47;3604976;39;20083;-65
2021/05/20 10:25:27;;;;;;;22.65;13.65;;;;;;;15.94;100.00;101892.59;3600795;39;20046;-65
2021/05/20 10:27:54;;;;;;;19.85;14.55;;;;;;;15.82;100.00;101880.19;3602531;39;20039;-63
2021/05/20 10:30:24;;;;;;;20.92;13.77;;;;;;;16.26;100.00;101879.66;3600490;39;20111;-62
2021/05/20 10:32:55;;;;;;;19.45;13.57;;;;;;;16.39;100.00;101876.59;3603804;39;20063;-63
2021/05/20 10:35:21;;;;;;;15.68;11.63;;;;;;;16.33;100.00;101875.34;3603885;39;20062;-63
2021/05/20 10:37:55;;;;;;;20.05;14.70;;;;;;;16.16;100.00;101870.69;3598430;39;20040;-62
2021/05/20 10:40:31;;;;;;;22.17;17.13;;;;;;;16.00;100.00;101864.00;3600056;39;20133;-62
2021/05/20 10:43:09;;;;;;;19.88;13.70;;;;;;;16.34;100.00;101862.59;3604868;39;20088;-62
2021/05/20 10:45:36;;;;;;;12.10;9.30;;;;;;;16.25;100.00;101865.22;3605492;39;20080;-62
2021/05/20 10:48:23;;;;;;;15.95;12.25;;;;;;;16.45;100.00;101868.69;3603191;39;20374;-63
2021/05/20 10:51:13;;;;;;;15.93;12.13;;;;;;;16.29;100.00;101865.75;3601574;39;20378;-62
2021/05/20 10:53:59;;;;;;;18.52;12.57;;;;;;;16.86;100.00;101856.59;3602206;39;20043;-62
2021/05/20 10:56:54;;;;;;;18.55;14.18;;;;;;;16.82;100.00;101851.47;3600942;39;20059;-63
2021/05/20 10:59:43;;;;;;;18.38;14.57;;;;;;;16.80;100.00;101852.63;3602719;39;20059;-63
2021/05/20 11:02:49;;;;;;;19.48;14.32;;;;;;;16.79;100.00;101838.16;3605231;39;20040;-63
2021/05/20 11:05:52;;;;;;;20.23;14.48;;;;;;;16.57;100.00;101834.00;3605596;39;20051;-62
2021/05/20 11:09:00;;;;;;;16.92;12.85;;;;;;;16.62;100.00;101822.69;3605578;39;20058;-62
2021/05/20 11:11:51;;;;;;;14.23;10.65;;;;;;;16.36;100.00;101819.84;3604882;39;20061;-63
2021/05/20 11:14:35;;;;;;;13.50;10.82;;;;;;;16.84;100.00;101796.91;3603676;39;20394;-63
2021/05/20 11:17:01;;;;;;;13.65;10.95;;;;;;;16.98;100.00;101820.06;3606189;39;20136;-63
2021/05/20 11:19:28;;;;;;;15.00;9.90;;;;;;;17.26;100.00;101809.09;3607860;39;20061;-62
2021/05/20 11:22:11;;;;;;;11.35;9.38;;;;;;;17.06;93.17;101811.13;3608530;39;20037;-63